Time;durP1;ratioP1;P1;durP2;ratioP2;P2;SDS_P1;SDS_P2;PMS_P1;PMS_P2;Temp;Humidity;BMP_temperature;BMP_pressure;BME280_temperature;BME280_humidity;BME280_pressure;Samples;Min_cycle;Max_cycle;Signal;HPM_P1;HPM_P2
2021/04/29 14:21:32;;;;;;;8.98;5.32;;;15.40;48.40;;;;;;5128833;27;20294;-78
2021/04/29 14:23:57;;;;;;;7.25;5.15;;;15.00;49.30;;;;;;5133472;27;20338;-80
2021/04/29 14:27:48;;;;;;;10.57;5.07;;;15.00;48.70;;;;;;5036783;28;20322;-79
2021/04/29 14:30:15;;;;;;;10.02;4.97;;;15.10;49.30;;;;;;4988661;28;20484;-78
2021/04/29 14:32:40;;;;;;;5.18;4.40;;;15.10;49.10;;;;;;4990617;28;20101;-79
2021/04/29 14:35:07;;;;;;;5.53;4.75;;;15.20;49.00;;;;;;4986544;28;20129;-79
2021/04/29 14:37:33;;;;;;;13.20;5.45;;;15.30;48.70;;;;;;4988388;28;20520;-78
2021/04/29 14:39:59;;;;;;;8.00;4.90;;;15.30;48.40;;;;;;4987735;28;20082;-79
2021/04/29 14:42:30;;;;;;;11.25;6.13;;;15.40;48.30;;;;;;4986919;28;20429;-79
2021/04/29 14:44:57;;;;;;;9.43;6.97;;;15.40;48.10;;;;;;4986322;28;20045;-79
2021/04/29 14:47:22;;;;;;;10.68;6.70;;;15.40;48.00;;;;;;4988574;28;20041;-77
2021/04/29 14:49:48;;;;;;;14.63;5.05;;;15.50;48.20;;;;;;4988076;28;20117;-79
2021/04/29 14:52:14;;;;;;;8.23;4.90;;;15.50;47.80;;;;;;4988188;28;20099;-79
2021/04/29 14:54:39;;;;;;;10.27;5.57;;;15.50;47.50;;;;;;4988032;28;20372;-78
2021/04/29 14:57:07;;;;;;;9.00;6.00;;;15.60;47.20;;;;;;4987717;28;20034;-79
2021/04/29 14:59:32;;;;;;;7.63;5.10;;;15.60;47.20;;;;;;4987984;28;20025;-79
2021/04/29 15:01:58;;;;;;;4.95;4.45;;;15.60;47.10;;;;;;4987435;28;20027;-79
2021/04/29 15:04:24;;;;;;;6.68;4.50;;;15.50;46.90;;;;;;4987661;28;20093;-79
2021/04/29 15:06:50;;;;;;;10.70;4.80;;;15.50;46.80;;;;;;4989094;28;20138;-79
2021/04/29 15:09:18;;;;;;;8.48;5.07;;;15.50;46.80;;;;;;4988245;28;20069;-78
2021/04/29 15:11:45;;;;;;;6.05;4.63;;;15.50;46.80;;;;;;4987854;28;20026;-78
2021/04/29 15:14:11;;;;;;;10.27;5.47;;;15.50;47.00;;;;;;4984738;28;20023;-79
2021/04/29 15:16:37;;;;;;;12.93;6.72;;;15.50;47.00;;;;;;4987008;28;20046;-78
2021/04/29 15:19:03;;;;;;;7.95;5.60;;;15.50;46.90;;;;;;4987912;28;20046;-79
2021/04/29 15:21:32;;;;;;;8.02;5.90;;;15.50;46.80;;;;;;4988053;28;20053;-79
2021/04/29 15:23:58;;;;;;;12.55;6.57;;;15.50;46.80;;;;;;4987711;28;20067;-79
2021/04/29 15:26:24;;;;;;;13.18;7.55;;;15.50;46.70;;;;;;4985941;28;20047;-80
2021/04/29 15:28:50;;;;;;;9.95;6.32;;;15.50;46.70;;;;;;4986337;28;20033;-79
2021/04/29 15:31:16;;;;;;;8.65;7.20;;;15.50;47.10;;;;;;4986313;28;20026;-79
2021/04/29 15:33:42;;;;;;;9.75;5.85;;;15.50;46.40;;;;;;4987458;28;20070;-78
2021/04/29 15:36:08;;;;;;;7.47;6.13;;;15.60;46.40;;;;;;4986594;28;20038;-79
2021/04/29 15:38:35;;;;;;;10.23;7.43;;;15.60;46.10;;;;;;4977777;28;20046;-80
2021/04/29 15:41:01;;;;;;;12.13;7.85;;;15.50;45.90;;;;;;4974995;28;20045;-81
2021/04/29 15:43:28;;;;;;;9.45;6.82;;;15.50;45.70;;;;;;4974224;28;20222;-79
2021/04/29 15:45:57;;;;;;;7.10;4.55;;;15.50;45.80;;;;;;4974351;28;20069;-79
2021/04/29 15:48:24;;;;;;;7.90;4.45;;;15.50;45.80;;;;;;4974918;28;20019;-78
2021/04/29 15:50:55;;;;;;;7.45;4.40;;;15.40;45.90;;;;;;4974540;28;20027;-79
2021/04/29 15:53:21;;;;;;;8.50;4.38;;;15.40;46.00;;;;;;4974665;28;20033;-79
2021/04/29 15:55:47;;;;;;;11.27;4.80;;;15.40;46.10;;;;;;4974474;28;20030;-75
2021/04/29 15:58:13;;;;;;;11.20;4.40;;;15.40;46.30;;;;;;4973701;28;20049;-76
2021/04/29 16:00:38;;;;;;;11.23;4.97;;;15.30;46.20;;;;;;4974073;28;20055;-75
2021/04/29 16:03:05;;;;;;;13.23;5.22;;;15.30;46.20;;;;;;4973743;28;20106;-76
2021/04/29 16:05:31;;;;;;;9.40;5.38;;;15.30;46.50;;;;;;4972177;28;20512;-75
2021/04/29 16:07:56;;;;;;;12.55;6.30;;;15.30;46.80;;;;;;4972918;28;20031;-72
2021/04/29 16:10:22;;;;;;;14.07;5.55;;;15.30;46.90;;;;;;4973883;28;20339;-75
2021/04/29 16:12:48;;;;;;;9.40;6.13;;;15.20;47.00;;;;;;4973443;28;20030;-74
2021/04/29 16:15:14;;;;;;;12.32;7.90;;;15.20;47.30;;;;;;4972455;28;20129;-74
2021/04/29 16:17:40;;;;;;;11.60;5.88;;;15.20;47.50;;;;;;4973638;28;20146;-73
2021/04/29 16:20:08;;;;;;;15.75;5.65;;;15.20;47.80;;;;;;4973987;28;20535;-74
2021/04/29 16:22:34;;;;;;;8.90;5.43;;;15.10;47.90;;;;;;4973637;28;20064;-73
2021/04/29 16:25:00;;;;;;;9.95;5.53;;;15.10;48.10;;;;;;4973264;28;20026;-74
2021/04/29 16:27:25;;;;;;;11.70;5.25;;;15.10;48.40;;;;;;4972688;28;20458;-73
2021/04/29 16:29:51;;;;;;;9.35;6.03;;;15.10;48.60;;;;;;4973577;28;20369;-74
2021/04/29 16:32:19;;;;;;;14.00;6.07;;;15.00;48.70;;;;;;4973596;28;20027;-74
2021/04/29 16:34:46;;;;;;;8.15;4.68;;;15.00;48.90;;;;;;4973935;28;20029;-76
2021/04/29 16:37:12;;;;;;;13.38;5.85;;;14.90;48.90;;;;;;4974480;28;20057;-74
2021/04/29 16:39:38;;;;;;;12.27;5.72;;;14.90;49.10;;;;;;4974217;28;20034;-75
2021/04/29 16:42:04;;;;;;;13.60;6.22;;;14.80;49.10;;;;;;4973979;28;20124;-74
2021/04/29 16:44:30;;;;;;;12.93;6.57;;;14.80;49.30;;;;;;4973951;28;20058;-75
2021/04/29 16:46:56;;;;;;;19.48;6.53;;;14.80;49.30;;;;;;4973862;28;20069;-76
2021/04/29 16:49:22;;;;;;;13.18;6.53;;;14.80;49.50;;;;;;4973136;28;20034;-78
2021/04/29 16:51:47;;;;;;;11.43;6.20;;;14.70;49.40;;;;;;4974430;28;20113;-75
2021/04/29 16:54:13;;;;;;;17.10;6.95;;;14.70;49.60;;;;;;4973544;28;20033;-73
2021/04/29 16:56:39;;;;;;;15.68;7.07;;;14.70;49.70;;;;;;4973256;28;20035;-74
2021/04/29 16:59:05;;;;;;;16.65;6.35;;;14.60;49.70;;;;;;4973491;28;20030;-74
2021/04/29 17:01:31;;;;;;;13.18;7.07;;;14.60;49.80;;;;;;4973258;28;20111;-73
2021/04/29 17:03:56;;;;;;;12.15;7.00;;;14.60;50.00;;;;;;4973368;28;20102;-74
2021/04/29 17:06:22;;;;;;;17.02;8.50;;;14.50;50.20;;;;;;4973242;28;20110;-74
2021/04/29 17:08:48;;;;;;;15.27;8.75;;;14.40;50.30;;;;;;4972974;28;20038;-74
2021/04/29 17:11:15;;;;;;;20.42;11.27;;;14.40;50.50;;;;;;4972807;28;20051;-73
2021/04/29 17:13:44;;;;;;;28.85;15.02;;;14.40;50.60;;;;;;4972931;28;20026;-75
2021/04/29 17:16:09;;;;;;;42.13;22.10;;;14.30;50.80;;;;;;4972927;28;20062;-73
2021/04/29 17:18:35;;;;;;;59.53;39.17;;;14.30;51.00;;;;;;4971324;28;20035;-73
2021/04/29 17:21:01;;;;;;;40.95;27.55;;;14.30;51.10;;;;;;4971170;28;20516;-75
2021/04/29 17:23:27;;;;;;;38.25;24.40;;;14.30;51.30;;;;;;4972420;28;20027;-74
2021/04/29 17:25:52;;;;;;;32.50;17.80;;;14.20;51.40;;;;;;4971385;28;20055;-74
2021/04/29 17:28:18;;;;;;;43.08;21.80;;;14.10;51.50;;;;;;4972640;28;20023;-74
2021/04/29 17:30:44;;;;;;;31.42;18.33;;;14.10;51.70;;;;;;4972479;28;20058;-75
2021/04/29 17:33:10;;;;;;;46.88;26.92;;;14.10;51.90;;;;;;4972213;28;20081;-73
2021/04/29 17:35:35;;;;;;;32.72;19.42;;;14.00;52.00;;;;;;4972879;28;20066;-75
2021/04/29 17:38:01;;;;;;;27.85;19.85;;;14.00;52.20;;;;;;4972376;28;20019;-73
2021/04/29 17:40:27;;;;;;;37.72;21.55;;;14.00;52.40;;;;;;4972705;28;20147;-75
2021/04/29 17:42:59;;;;;;;45.42;25.98;;;13.90;52.60;;;;;;4971037;28;20042;-73
2021/04/29 17:45:25;;;;;;;87.72;47.10;;;13.90;52.80;;;;;;4972509;28;20019;-73
2021/04/29 17:47:51;;;;;;;108.20;66.13;;;13.80;53.00;;;;;;4971267;28;20041;-76
2021/04/29 17:50:17;;;;;;;69.15;40.05;;;13.80;53.20;;;;;;4972010;28;20030;-74
2021/04/29 17:52:43;;;;;;;55.03;34.72;;;13.70;53.40;;;;;;4972107;28;20023;-74
2021/04/29 17:55:09;;;;;;;30.30;17.95;;;13.70;53.60;;;;;;4972556;28;20038;-73
2021/04/29 17:57:35;;;;;;;20.60;10.75;;;13.70;53.90;;;;;;4972533;28;20038;-75
2021/04/29 18:00:03;;;;;;;17.55;10.10;;;13.60;54.00;;;;;;4971778;28;20030;-74
2021/04/29 18:02:29;;;;;;;18.30;10.07;;;13.60;54.20;;;;;;4970798;28;20141;-73
2021/04/29 18:05:07;;;;;;;19.27;11.10;;;13.50;54.30;;;;;;4972371;28;20097;-75
2021/04/29 18:07:34;;;;;;;32.50;16.85;;;13.50;54.60;;;;;;4972411;28;20118;-73
2021/04/29 18:09:59;;;;;;;38.53;21.83;;;13.50;54.80;;;;;;4971510;28;20030;-74
2021/04/29 18:12:25;;;;;;;47.42;29.42;;;13.50;55.10;;;;;;4971084;28;20018;-74
2021/04/29 18:14:51;;;;;;;41.67;22.00;;;13.40;55.30;;;;;;4971941;28;20102;-73
2021/04/29 18:17:17;;;;;;;40.13;22.35;;;13.30;55.40;;;;;;4970720;28;20457;-73
2021/04/29 18:19:43;;;;;;;29.05;14.18;;;13.30;55.70;;;;;;4972152;28;20035;-74
2021/04/29 18:22:10;;;;;;;29.38;15.40;;;13.30;55.90;;;;;;4972106;28;20033;-74
2021/04/29 18:24:36;;;;;;;24.40;15.02;;;13.20;56.20;;;;;;4971071;28;20051;-74
2021/04/29 18:27:02;;;;;;;38.75;15.93;;;13.20;56.30;;;;;;4971698;28;20081;-74
2021/04/29 18:29:28;;;;;;;31.13;16.73;;;13.20;56.40;;;;;;4972266;28;20059;-74
2021/04/29 18:31:53;;;;;;;36.15;16.90;;;13.20;56.70;;;;;;4972254;28;20069;-73
2021/04/29 18:34:19;;;;;;;38.03;18.73;;;13.10;56.80;;;;;;4970810;28;20037;-75
2021/04/29 18:36:45;;;;;;;41.53;19.08;;;13.10;57.00;;;;;;4971862;28;20027;-74
2021/04/29 18:39:11;;;;;;;37.70;19.15;;;13.00;57.10;;;;;;4971768;28;20031;-74
2021/04/29 18:41:37;;;;;;;45.42;21.98;;;13.00;57.30;;;;;;4972073;28;20035;-74
2021/04/29 18:44:03;;;;;;;43.30;23.65;;;12.90;57.40;;;;;;4971897;28;20489;-74
2021/04/29 18:46:29;;;;;;;44.58;22.90;;;12.90;57.60;;;;;;4971814;28;20050;-74
2021/04/29 18:48:55;;;;;;;48.90;24.23;;;12.90;57.80;;;;;;4972040;28;20082;-74
2021/04/29 18:51:21;;;;;;;49.45;23.85;;;12.90;57.90;;;;;;4971729;28;20031;-72
2021/04/29 18:53:47;;;;;;;50.17;23.73;;;12.90;57.90;;;;;;4971814;28;20078;-73
2021/04/29 18:56:14;;;;;;;42.33;23.95;;;12.90;58.00;;;;;;4970463;28;20027;-74
2021/04/29 18:58:42;;;;;;;90.15;53.42;;;12.90;58.10;;;;;;4972031;28;20023;-73
2021/04/29 19:01:08;;;;;;;69.15;40.47;;;12.80;58.10;;;;;;4972399;28;20035;-74
2021/04/29 19:03:34;;;;;;;56.15;25.83;;;12.80;58.30;;;;;;4972036;28;20023;-73
2021/04/29 19:06:00;;;;;;;64.80;26.85;;;12.80;58.40;;;;;;4971596;28;20050;-74
2021/04/29 19:08:26;;;;;;;50.58;24.42;;;12.80;58.60;;;;;;4971994;28;20102;-74
2021/04/29 19:10:53;;;;;;;58.65;26.08;;;12.80;58.60;;;;;;4970513;28;20034;-74
2021/04/29 19:13:19;;;;;;;50.22;26.08;;;12.80;58.60;;;;;;4973338;28;20023;-74
2021/04/29 19:15:45;;;;;;;46.33;23.42;;;12.80;58.70;;;;;;4975596;28;20022;-74
2021/04/29 19:18:10;;;;;;;44.75;23.67;;;12.80;58.70;;;;;;4975452;28;20027;-73
2021/04/29 19:20:36;;;;;;;36.63;20.17;;;12.80;58.70;;;;;;4973772;28;20031;-72
2021/04/29 19:23:02;;;;;;;31.60;19.42;;;12.90;58.80;;;;;;4974129;28;20023;-73
2021/04/29 19:25:28;;;;;;;43.97;21.77;;;12.90;58.80;;;;;;4975147;28;20049;-73
2021/04/29 19:27:54;;;;;;;50.55;23.65;;;12.90;58.70;;;;;;4975524;28;20081;-74
2021/04/29 19:30:22;;;;;;;55.30;29.50;;;12.90;58.60;;;;;;4975437;28;20027;-73
2021/04/29 19:32:51;;;;;;;57.97;30.60;;;13.00;58.70;;;;;;4975494;28;20189;-72
2021/04/29 19:35:20;;;;;;;28.60;16.73;;;13.00;58.70;;;;;;4975038;28;20022;-74
2021/04/29 19:37:45;;;;;;;52.72;27.85;;;12.90;58.50;;;;;;4975171;28;20085;-74
2021/04/29 19:40:13;;;;;;;34.35;19.23;;;12.90;58.50;;;;;;4973667;28;20066;-74
2021/04/29 19:42:40;;;;;;;20.60;11.75;;;12.90;58.60;;;;;;4974809;28;20449;-74
2021/04/29 19:45:11;;;;;;;25.00;13.88;;;12.90;58.70;;;;;;4974021;28;20027;-75
2021/04/29 19:47:38;;;;;;;24.40;13.75;;;12.90;58.70;;;;;;4974936;28;20034;-74
2021/04/29 19:50:06;;;;;;;23.60;13.38;;;12.90;58.60;;;;;;4973688;28;20358;-75
2021/04/29 19:52:35;;;;;;;39.67;20.52;;;12.90;58.60;;;;;;5006248;28;20030;-75
2021/04/29 19:55:02;;;;;;;31.08;16.85;;;12.90;58.60;;;;;;4974943;28;20457;-74
2021/04/29 19:57:28;;;;;;;20.92;10.10;;;13.00;58.70;;;;;;4974973;28;20050;-73
2021/04/29 19:59:55;;;;;;;16.30;12.05;;;12.90;58.60;;;;;;4974896;28;20032;-74
2021/04/29 20:02:21;;;;;;;26.05;11.13;;;13.00;58.50;;;;;;4973284;28;20158;-77
2021/04/29 20:04:47;;;;;;;15.57;10.02;;;13.00;58.50;;;;;;4974552;28;20058;-75
2021/04/29 20:07:13;;;;;;;32.42;19.95;;;13.00;58.50;;;;;;4972761;28;20030;-74
2021/04/29 20:09:40;;;;;;;22.65;11.45;;;13.00;58.50;;;;;;4974323;28;20023;-74
2021/04/29 20:12:08;;;;;;;22.30;13.45;;;13.00;58.50;;;;;;4973191;28;20438;-75
2021/04/29 20:14:37;;;;;;;16.25;9.30;;;13.00;58.60;;;;;;4974249;28;20469;-73
2021/04/29 20:17:03;;;;;;;16.42;9.70;;;13.00;58.70;;;;;;4974336;28;20521;-74
2021/04/29 20:19:29;;;;;;;14.57;10.27;;;13.00;58.70;;;;;;4974161;28;20058;-73
2021/04/29 20:21:55;;;;;;;56.00;29.98;;;12.90;58.70;;;;;;4974349;28;20058;-74
2021/04/29 20:24:21;;;;;;;17.05;10.38;;;12.90;58.70;;;;;;4973933;28;20037;-73
2021/04/29 20:26:47;;;;;;;47.33;25.67;;;12.90;58.80;;;;;;4973642;28;20059;-75
2021/04/29 20:29:13;;;;;;;18.33;12.57;;;12.90;58.90;;;;;;4974269;28;20532;-76
2021/04/29 20:31:39;;;;;;;19.65;11.30;;;12.90;59.10;;;;;;4974245;28;20055;-75
2021/04/29 20:34:05;;;;;;;15.63;11.35;;;12.90;59.80;;;;;;4974557;28;20019;-74
2021/04/29 20:36:34;;;;;;;16.95;11.75;;;12.90;59.30;;;;;;4974823;28;20109;-78
2021/04/29 20:39:00;;;;;;;16.80;11.55;;;12.80;59.30;;;;;;4975430;28;20058;-76
2021/04/29 20:41:26;;;;;;;19.38;11.07;;;12.80;59.40;;;;;;4974792;28;20042;-71
2021/04/29 20:43:54;;;;;;;19.13;11.45;;;12.90;59.60;;;;;;4974424;28;20023;-78
2021/04/29 20:46:20;;;;;;;20.95;11.70;;;12.80;59.60;;;;;;4972275;28;20039;-75
2021/04/29 20:48:45;;;;;;;16.65;12.10;;;12.80;59.70;;;;;;4972279;28;20104;-77
2021/04/29 20:51:11;;;;;;;15.88;11.68;;;12.80;59.70;;;;;;4973727;28;20057;-74
2021/04/29 20:53:37;;;;;;;18.83;11.55;;;12.80;59.80;;;;;;4973603;28;20107;-74
2021/04/29 20:56:06;;;;;;;18.58;11.13;;;12.70;59.90;;;;;;4971912;28;20366;-73
2021/04/29 20:58:31;;;;;;;19.58;11.77;;;12.70;60.10;;;;;;4973973;28;20035;-74
2021/04/29 21:00:57;;;;;;;22.35;11.90;;;12.70;60.10;;;;;;4973335;28;20107;-73
2021/04/29 21:03:23;;;;;;;15.43;10.88;;;12.70;60.20;;;;;;4973645;28;20041;-74
2021/04/29 21:05:48;;;;;;;15.95;11.63;;;12.70;61.00;;;;;;4973283;28;20034;-75
2021/04/29 21:08:14;;;;;;;17.70;11.57;;;12.70;60.50;;;;;;4973571;28;20027;-74
2021/04/29 21:10:40;;;;;;;22.50;12.85;;;12.70;60.60;;;;;;4973217;28;20016;-74
2021/04/29 21:13:06;;;;;;;19.30;12.48;;;12.60;60.70;;;;;;4972039;28;20045;-72
2021/04/29 21:15:32;;;;;;;21.02;12.95;;;12.60;60.80;;;;;;4974697;28;20026;-77
2021/04/29 21:17:58;;;;;;;19.73;12.43;;;12.60;60.90;;;;;;4974119;28;20039;-78
2021/04/29 21:20:24;;;;;;;22.23;13.07;;;12.60;61.10;;;;;;4973459;28;20058;-77
2021/04/29 21:22:49;;;;;;;25.17;15.45;;;12.60;61.30;;;;;;4972671;28;20073;-75
2021/04/29 21:25:15;;;;;;;17.38;11.35;;;12.60;61.40;;;;;;4968878;28;20069;-77
2021/04/29 21:27:41;;;;;;;26.50;16.30;;;12.60;61.50;;;;;;4972516;28;20070;-76
2021/04/29 21:30:10;;;;;;;16.55;11.57;;;12.60;61.60;;;;;;4972163;28;20038;-79
2021/04/29 21:32:36;;;;;;;19.58;12.73;;;12.60;61.70;;;;;;4970607;28;20046;-79
2021/04/29 21:35:02;;;;;;;20.02;10.60;;;12.60;61.70;;;;;;4973146;28;20038;-78
2021/04/29 21:37:28;;;;;;;14.70;11.82;;;12.60;61.80;;;;;;4975061;28;20038;-77
2021/04/29 21:39:54;;;;;;;18.10;10.93;;;12.50;61.80;;;;;;4975770;28;20022;-78
2021/04/29 21:42:20;;;;;;;15.70;11.23;;;12.50;61.90;;;;;;4974053;28;20131;-77
2021/04/29 21:44:45;;;;;;;14.95;10.73;;;12.50;62.00;;;;;;4973151;28;20027;-77
2021/04/29 21:47:11;;;;;;;13.77;10.88;;;12.50;62.10;;;;;;4972778;28;20774;-76
2021/04/29 21:49:37;;;;;;;15.57;11.20;;;12.50;62.20;;;;;;4972865;28;20046;-76
2021/04/29 21:52:03;;;;;;;14.73;10.73;;;12.50;62.20;;;;;;4973913;28;20027;-78
2021/04/29 21:54:29;;;;;;;20.33;11.68;;;12.40;62.20;;;;;;4972576;28;20522;-78
2021/04/29 21:56:54;;;;;;;15.57;11.18;;;12.40;62.30;;;;;;4973601;28;20027;-78
2021/04/29 21:59:20;;;;;;;18.80;10.73;;;12.40;62.40;;;;;;5004790;28;20097;-78
2021/04/29 22:01:46;;;;;;;18.30;10.82;;;12.40;62.50;;;;;;4973744;28;20450;-78
2021/04/29 22:04:12;;;;;;;13.82;10.68;;;12.40;62.60;;;;;;4973525;28;20532;-77
2021/04/29 22:06:38;;;;;;;14.50;10.30;;;12.40;62.70;;;;;;4973394;28;20138;-78
2021/04/29 22:09:05;;;;;;;15.13;10.27;;;12.40;62.80;;;;;;4972124;28;20022;-79
2021/04/29 22:11:32;;;;;;;18.48;10.68;;;12.40;62.90;;;;;;4973409;28;20049;-79
2021/04/29 22:13:58;;;;;;;20.30;11.00;;;12.40;63.00;;;;;;4974463;28;20023;-79
2021/04/29 22:16:25;;;;;;;13.70;10.25;;;12.40;63.00;;;;;;4974862;28;20027;-80
2021/04/29 22:18:51;;;;;;;14.18;10.00;;;12.40;63.10;;;;;;4974916;28;20027;-77
2021/04/29 22:21:18;;;;;;;12.98;10.40;;;12.40;63.20;;;;;;4973687;28;20035;-78
2021/04/29 22:23:44;;;;;;;14.75;10.90;;;12.40;63.30;;;;;;4973437;28;20492;-79
2021/04/29 22:26:11;;;;;;;16.00;10.45;;;12.40;63.40;;;;;;4973105;28;20077;-79
2021/04/29 22:28:37;;;;;;;20.30;10.82;;;12.40;63.40;;;;;;4973359;28;20022;-78
2021/04/29 22:31:06;;;;;;;14.05;10.85;;;12.40;63.50;;;;;;4973337;28;20058;-78
2021/04/29 22:33:32;;;;;;;15.13;10.60;;;12.30;63.50;;;;;;4973017;28;20081;-77
2021/04/29 22:35:58;;;;;;;17.00;10.95;;;12.40;63.60;;;;;;4973227;28;20031;-79
2021/04/29 22:38:24;;;;;;;17.27;10.88;;;12.30;63.70;;;;;;4973221;28;20031;-78
2021/04/29 22:40:50;;;;;;;13.52;10.68;;;12.30;63.80;;;;;;4973067;28;20102;-78
2021/04/29 22:43:21;;;;;;;17.25;11.68;;;12.30;63.80;;;;;;4971905;28;20039;-79
2021/04/29 22:45:49;;;;;;;13.60;10.95;;;12.20;63.90;;;;;;4973014;28;20031;-78
2021/04/29 22:48:15;;;;;;;14.07;10.82;;;12.20;64.00;;;;;;4976199;28;20026;-78
2021/04/29 22:50:41;;;;;;;15.30;12.05;;;12.20;64.00;;;;;;4978046;28;20038;-77
2021/04/29 22:53:07;;;;;;;17.50;11.43;;;12.20;64.10;;;;;;5008636;28;20026;-77
2021/04/29 22:55:33;;;;;;;21.00;12.95;;;12.10;64.20;;;;;;4976952;28;20366;-77
2021/04/29 22:57:58;;;;;;;22.33;13.05;;;12.10;64.30;;;;;;4976925;28;20077;-77
2021/04/29 23:00:24;;;;;;;18.98;12.50;;;12.00;64.30;;;;;;4976823;28;20490;-77
2021/04/29 23:02:50;;;;;;;18.95;12.77;;;12.00;64.60;;;;;;4976669;28;20026;-77
2021/04/29 23:05:18;;;;;;;19.83;12.85;;;11.90;64.60;;;;;;4976691;28;20019;-77
2021/04/29 23:07:44;;;;;;;17.88;13.40;;;11.80;64.70;;;;;;4976422;28;20027;-78
2021/04/29 23:10:11;;;;;;;20.85;13.55;;;11.80;64.90;;;;;;4976383;28;20030;-77
2021/04/29 23:12:37;;;;;;;16.42;12.38;;;11.70;65.00;;;;;;5007763;28;20438;-78
2021/04/29 23:15:08;;;;;;;17.60;12.63;;;11.70;65.10;;;;;;4976671;28;20062;-77
2021/04/29 23:17:35;;;;;;;18.20;12.63;;;11.70;65.40;;;;;;4976340;28;20050;-77
2021/04/29 23:20:00;;;;;;;17.10;12.38;;;11.70;65.50;;;;;;4976829;28;20031;-76
2021/04/29 23:22:26;;;;;;;18.77;12.23;;;11.60;65.50;;;;;;4976713;28;20038;-77
2021/04/29 23:24:52;;;;;;;17.55;12.27;;;11.60;65.70;;;;;;4977053;28;20489;-76
2021/04/29 23:27:18;;;;;;;18.75;13.10;;;11.60;65.90;;;;;;4976739;28;20062;-75
2021/04/29 23:29:43;;;;;;;23.60;13.02;;;11.60;66.00;;;;;;4976734;28;20031;-77
2021/04/29 23:32:09;;;;;;;19.08;12.93;;;11.60;66.00;;;;;;4976262;28;20030;-77
2021/04/29 23:34:35;;;;;;;18.13;12.98;;;11.60;66.10;;;;;;4975066;28;20034;-79
2021/04/29 23:37:02;;;;;;;19.33;12.93;;;11.60;66.20;;;;;;4974899;28;20477;-76
2021/04/29 23:39:28;;;;;;;23.15;13.95;;;11.60;66.40;;;;;;4976120;28;20027;-79
2021/04/29 23:41:54;;;;;;;18.92;12.98;;;11.50;66.40;;;;;;4976073;28;20389;-78
2021/04/29 23:44:20;;;;;;;20.02;14.13;;;11.50;66.50;;;;;;4976049;28;20043;-78
2021/04/29 23:46:46;;;;;;;19.00;14.07;;;11.50;66.60;;;;;;5007125;28;20042;-78
2021/04/29 23:49:12;;;;;;;24.75;13.82;;;11.50;66.70;;;;;;4975933;28;20023;-77
2021/04/29 23:51:38;;;;;;;26.13;15.00;;;11.50;66.90;;;;;;4975883;28;20106;-76
2021/04/29 23:54:04;;;;;;;20.02;13.63;;;11.50;66.90;;;;;;4975905;28;20023;-76
2021/04/29 23:56:31;;;;;;;23.25;14.65;;;11.40;67.00;;;;;;4975987;28;20173;-75
2021/04/29 23:58:56;;;;;;;23.85;15.23;;;11.40;67.00;;;;;;4975606;28;20034;-76
